Time;durP1;ratioP1;P1;durP2;ratioP2;P2;SDS_P1;SDS_P2;PMS_P1;PMS_P2;Temp;Humidity;BMP_temperature;BMP_pressure;BME280_temperature;BME280_humidity;BME280_pressure;Samples;Min_cycle;Max_cycle;Signal;HPM_P1;HPM_P2
2023/10/03 00:00:34;;;;;;;66.28;33.00;;;18.00;99.90;;;;;;5071746;28;20205;-49
2023/10/03 00:03:08;;;;;;;50.20;25.75;;;18.00;99.90;;;;;;5071719;28;20189;-49
2023/10/03 00:05:34;;;;;;;47.80;24.73;;;17.90;99.90;;;;;;5072177;28;20201;-51
2023/10/03 00:08:04;;;;;;;40.30;21.40;;;17.90;99.90;;;;;;5072191;28;20170;-51
2023/10/03 00:10:30;;;;;;;39.97;21.90;;;17.90;99.90;;;;;;5072207;28;20275;-51
2023/10/03 00:12:56;;;;;;;51.65;27.98;;;17.90;99.90;;;;;;5071723;28;20740;-52
2023/10/03 00:15:27;;;;;;;39.42;21.58;;;17.90;99.90;;;;;;5071925;28;20249;-51
2023/10/03 00:17:53;;;;;;;40.33;22.05;;;17.80;99.90;;;;;;5072041;28;20204;-48
2023/10/03 00:20:19;;;;;;;41.90;22.05;;;17.80;99.90;;;;;;5071760;28;20206;-52
2023/10/03 00:22:45;;;;;;;33.08;19.40;;;17.80;99.90;;;;;;5072261;28;20205;-48
2023/10/03 00:25:19;;;;;;;38.28;18.88;;;17.80;99.90;;;;;;5071970;28;20208;-51
2023/10/03 00:27:46;;;;;;;45.13;26.40;;;17.90;99.90;;;;;;5072080;28;20200;-49
2023/10/03 00:30:13;;;;;;;40.47;22.00;;;17.80;99.90;;;;;;5071655;28;20162;-51
2023/10/03 00:32:40;;;;;;;44.58;24.90;;;17.90;99.90;;;;;;5071820;28;20245;-52
2023/10/03 00:35:07;;;;;;;32.92;18.20;;;17.90;99.90;;;;;;5071616;28;20656;-52
2023/10/03 00:37:33;;;;;;;38.10;21.10;;;;;;;;;;5071929;28;20243;-50
2023/10/03 00:40:00;;;;;;;34.20;19.60;;;18.00;99.90;;;;;;5071597;28;20158;-49
2023/10/03 00:42:25;;;;;;;36.85;20.33;;;18.00;99.90;;;;;;5071816;28;20173;-50
2023/10/03 00:44:51;;;;;;;33.35;17.23;;;18.00;99.90;;;;;;5071548;28;20170;-48
2023/10/03 00:47:17;;;;;;;35.50;22.35;;;18.00;99.90;;;;;;5071762;28;20237;-48
2023/10/03 00:49:43;;;;;;;39.97;22.60;;;18.00;99.90;;;;;;5071343;28;20212;-50
2023/10/03 00:52:09;;;;;;;31.33;16.17;;;18.00;99.90;;;;;;5071386;28;20630;-49
2023/10/03 00:54:36;;;;;;;34.83;16.58;;;18.00;99.90;;;;;;5071402;28;20189;-49
2023/10/03 00:57:02;;;;;;;31.13;17.42;;;18.00;99.90;;;;;;5071646;28;20257;-47
2023/10/03 00:59:28;;;;;;;32.30;15.98;;;18.10;99.90;;;;;;5071337;28;20249;-49
2023/10/03 01:02:02;;;;;;;27.38;15.15;;;18.00;99.90;;;;;;5071571;28;20228;-48
2023/10/03 01:04:31;;;;;;;33.78;16.02;;;18.10;99.90;;;;;;5071387;28;20199;-49
2023/10/03 01:06:58;;;;;;;32.95;18.15;;;18.00;99.90;;;;;;5071164;28;20174;-48
2023/10/03 01:09:27;;;;;;;36.63;17.40;;;18.00;99.90;;;;;;5071302;28;20196;-48
2023/10/03 01:11:54;;;;;;;32.85;18.48;;;18.00;99.90;;;;;;5075059;28;20189;-49
2023/10/03 01:14:19;;;;;;;29.25;15.40;;;18.00;99.90;;;;;;5075343;28;20178;-49
2023/10/03 01:16:45;;;;;;;32.28;15.60;;;18.00;99.90;;;;;;5075707;28;20176;-48
2023/10/03 01:19:15;;;;;;;37.47;17.58;;;18.00;99.90;;;;;;5075263;28;20177;-48
2023/10/03 01:21:41;;;;;;;33.38;17.23;;;18.00;99.90;;;;;;5075468;28;20173;-48
2023/10/03 01:24:09;;;;;;;31.02;16.40;;;18.00;99.90;;;;;;5075384;28;20177;-48
2023/10/03 01:26:36;;;;;;;36.25;17.55;;;;;;;;;;5057239;28;20162;-48
2023/10/03 01:29:02;;;;;;;31.95;15.60;;;18.00;99.90;;;;;;5075331;28;20225;-48
2023/10/03 01:31:27;;;;;;;34.13;17.33;;;18.00;99.90;;;;;;5074932;28;20169;-48
2023/10/03 01:33:53;;;;;;;31.98;15.65;;;18.00;99.90;;;;;;5075249;28;20174;-48
2023/10/03 01:36:19;;;;;;;36.75;17.10;;;18.00;99.90;;;;;;5074941;28;20201;-48
2023/10/03 01:38:45;;;;;;;35.95;16.00;;;18.00;99.90;;;;;;5075492;28;20184;-48
2023/10/03 01:41:12;;;;;;;34.63;18.02;;;18.00;99.90;;;;;;5074844;28;20532;-48
2023/10/03 01:43:44;;;;;;;35.10;18.02;;;18.00;99.90;;;;;;5075030;28;20201;-52
2023/10/03 01:46:12;;;;;;;34.13;16.67;;;18.00;99.90;;;;;;5074663;28;20221;-51
2023/10/03 01:48:38;;;;;;;35.72;17.83;;;17.90;99.90;;;;;;5057377;28;21153;-52
2023/10/03 01:51:04;;;;;;;32.95;16.63;;;18.00;99.90;;;;;;5074586;28;20656;-50
2023/10/03 01:53:30;;;;;;;34.08;17.25;;;18.00;99.90;;;;;;5074641;28;20213;-49
2023/10/03 01:55:56;;;;;;;32.95;16.83;;;17.90;99.90;;;;;;5074472;28;20166;-50
2023/10/03 01:58:24;;;;;;;32.72;16.75;;;17.90;99.90;;;;;;5074741;28;20192;-49
2023/10/03 02:00:53;;;;;;;31.92;16.27;;;17.90;99.90;;;;;;5074494;28;20517;-49
2023/10/03 02:03:21;;;;;;;38.63;15.95;;;17.90;99.90;;;;;;5074581;28;20177;-49
2023/10/03 02:05:48;;;;;;;28.48;14.88;;;17.90;99.90;;;;;;5074795;28;20212;-49
2023/10/03 02:08:15;;;;;;;28.65;14.82;;;18.00;99.90;;;;;;5074990;28;20170;-48
2023/10/03 02:10:45;;;;;;;26.23;14.02;;;18.00;99.90;;;;;;5074237;28;20617;-49
2023/10/03 02:13:17;;;;;;;28.92;13.35;;;18.10;99.90;;;;;;5074448;28;20328;-48
2023/10/03 02:15:48;;;;;;;23.95;11.98;;;18.20;99.90;;;;;;5074526;28;20493;-51
2023/10/03 02:18:17;;;;;;;21.67;11.25;;;18.40;99.90;;;;;;5056613;28;20577;-49
2023/10/03 02:20:47;;;;;;;24.90;11.88;;;18.40;99.90;;;;;;5074244;28;20513;-49
2023/10/03 02:23:19;;;;;;;23.90;10.55;;;19.10;99.90;;;;;;5073639;28;20170;-49
2023/10/03 02:25:48;;;;;;;22.23;10.50;;;19.50;99.90;;;;;;5074699;28;20558;-49
2023/10/03 02:28:16;;;;;;;20.30;10.38;;;19.80;99.90;;;;;;5074427;28;20618;-52
2023/10/03 02:30:45;;;;;;;18.75;9.85;;;19.90;99.90;;;;;;5074163;28;20519;-52
2023/10/03 02:33:14;;;;;;;22.08;10.65;;;19.90;99.90;;;;;;5074051;28;20561;-49
2023/10/03 02:35:47;;;;;;;23.98;11.20;;;20.00;99.90;;;;;;5055841;28;20668;-48
2023/10/03 02:38:24;;;;;;;19.58;10.35;;;20.00;99.90;;;;;;5074473;28;20174;-48
2023/10/03 02:40:52;;;;;;;19.95;9.68;;;20.10;99.90;;;;;;5073968;28;20174;-49
2023/10/03 02:43:18;;;;;;;21.55;10.55;;;;;;;;;;5073751;28;20563;-48
2023/10/03 02:45:43;;;;;;;18.35;10.13;;;20.10;99.90;;;;;;5073986;28;20214;-48
2023/10/03 02:48:14;;;;;;;19.95;9.88;;;20.10;99.90;;;;;;5073575;28;20505;-48
2023/10/03 02:50:45;;;;;;;21.48;11.45;;;20.10;99.90;;;;;;5073567;28;20180;-48
2023/10/03 02:53:19;;;;;;;23.77;11.32;;;20.10;99.90;;;;;;5073359;28;20213;-48
2023/10/03 02:55:46;;;;;;;23.88;11.75;;;20.00;99.90;;;;;;5073834;28;20711;-48
2023/10/03 02:58:13;;;;;;;25.73;11.68;;;20.10;99.90;;;;;;5073651;28;20170;-48
2023/10/03 03:00:39;;;;;;;22.77;11.15;;;20.10;99.90;;;;;;5073579;28;20249;-49
2023/10/03 03:03:09;;;;;;;21.58;11.85;;;;;;;;;;5073336;28;20656;-48
2023/10/03 03:05:36;;;;;;;23.83;13.38;;;20.30;99.90;;;;;;5073268;28;20664;-49
2023/10/03 03:10:45;;;;;;;23.70;12.60;;;20.30;99.90;;;;;;5073567;28;20216;-48
2023/10/03 03:13:15;;;;;;;25.63;12.68;;;20.30;99.90;;;;;;5073307;28;20210;-49
2023/10/03 03:15:51;;;;;;;24.45;12.93;;;20.30;99.90;;;;;;5073092;28;20213;-48
2023/10/03 03:18:19;;;;;;;24.85;13.10;;;20.30;99.90;;;;;;5073653;28;20206;-48
2023/10/03 03:20:50;;;;;;;27.10;15.13;;;20.20;99.90;;;;;;5073643;28;20261;-48
2023/10/03 03:23:16;;;;;;;25.25;13.75;;;;;;;;;;5073599;28;20245;-52
2023/10/03 03:25:42;;;;;;;23.52;12.85;;;20.20;99.90;;;;;;5073183;28;20174;-49
2023/10/03 03:28:13;;;;;;;25.35;13.13;;;20.20;99.90;;;;;;5073023;28;20532;-49
2023/10/03 03:30:46;;;;;;;24.77;14.45;;;20.20;99.90;;;;;;5072731;28;20165;-52
2023/10/03 03:33:19;;;;;;;25.35;12.50;;;20.10;99.90;;;;;;5072493;28;20205;-49
2023/10/03 03:35:46;;;;;;;24.55;13.27;;;20.10;99.90;;;;;;5073314;28;20177;-48
2023/10/03 03:38:18;;;;;;;22.88;12.52;;;20.10;99.90;;;;;;5072451;28;20625;-48
2023/10/03 03:40:45;;;;;;;23.83;12.82;;;20.10;99.90;;;;;;5072972;28;20170;-48
2023/10/03 03:43:13;;;;;;;20.65;12.05;;;20.50;99.90;;;;;;5072718;28;20633;-49
2023/10/03 03:45:39;;;;;;;21.02;12.00;;;20.50;99.90;;;;;;5072485;28;20241;-48
2023/10/03 03:48:09;;;;;;;22.98;13.13;;;20.50;99.90;;;;;;5072568;28;20189;-48
2023/10/03 03:50:36;;;;;;;20.70;11.90;;;20.50;99.90;;;;;;5072348;28;20272;-48
2023/10/03 03:53:06;;;;;;;24.42;11.85;;;20.50;99.90;;;;;;5072341;28;20206;-48
2023/10/03 03:55:34;;;;;;;29.08;13.23;;;20.50;99.90;;;;;;5072571;28;20177;-49
2023/10/03 03:57:59;;;;;;;29.38;12.90;;;20.40;99.90;;;;;;5072458;28;20248;-51
2023/10/03 04:00:29;;;;;;;21.42;11.45;;;20.40;99.90;;;;;;5072217;28;20249;-49
2023/10/03 04:02:57;;;;;;;20.02;10.13;;;20.50;99.90;;;;;;5072444;28;20201;-49
2023/10/03 04:05:25;;;;;;;20.33;10.77;;;20.50;99.90;;;;;;5072202;28;20170;-49
2023/10/03 04:07:51;;;;;;;17.60;9.98;;;20.60;99.90;;;;;;5072320;28;20181;-49
2023/10/03 04:10:16;;;;;;;18.67;9.70;;;20.60;99.90;;;;;;5072373;28;20177;-48
2023/10/03 04:12:42;;;;;;;19.75;8.98;;;20.70;99.90;;;;;;5054443;28;20213;-48
2023/10/03 04:15:12;;;;;;;16.85;8.70;;;20.70;99.90;;;;;;5071987;28;20617;-48
2023/10/03 04:17:40;;;;;;;16.48;8.57;;;20.70;99.90;;;;;;5072297;28;20535;-48
2023/10/03 04:22:51;;;;;;;16.85;7.80;;;20.80;99.90;;;;;;5072097;28;20652;-48
2023/10/03 04:25:20;;;;;;;15.13;8.13;;;20.90;99.90;;;;;;5072217;28;20648;-49
2023/10/03 04:27:51;;;;;;;18.40;9.15;;;20.80;99.90;;;;;;5072089;28;20575;-51
2023/10/03 04:30:19;;;;;;;14.18;7.25;;;20.80;99.90;;;;;;5072126;28;20170;-49
2023/10/03 04:32:47;;;;;;;16.77;8.27;;;20.70;99.90;;;;;;5072075;28;20751;-53
2023/10/03 04:35:14;;;;;;;17.40;8.32;;;20.70;99.90;;;;;;5072443;28;20215;-50
2023/10/03 04:37:42;;;;;;;18.33;8.10;;;20.70;99.90;;;;;;5071900;28;20174;-58
2023/10/03 04:40:10;;;;;;;12.18;6.85;;;20.80;99.90;;;;;;5071989;28;20170;-49
2023/10/03 04:42:38;;;;;;;15.95;7.28;;;20.70;99.90;;;;;;5071715;28;20241;-48
2023/10/03 04:45:09;;;;;;;12.95;7.00;;;20.70;99.90;;;;;;5071247;28;20684;-48
2023/10/03 04:47:34;;;;;;;15.88;8.02;;;20.80;99.90;;;;;;5071483;28;20182;-48
2023/10/03 04:50:00;;;;;;;17.65;7.95;;;20.80;99.90;;;;;;5071505;28;20162;-48
2023/10/03 04:52:26;;;;;;;13.20;7.20;;;20.80;99.90;;;;;;5071445;28;20200;-48
2023/10/03 04:54:52;;;;;;;11.93;7.50;;;20.80;99.90;;;;;;5071450;28;20694;-48
2023/10/03 04:57:18;;;;;;;19.00;7.63;;;20.70;99.90;;;;;;5071416;28;20166;-48
2023/10/03 04:59:43;;;;;;;11.63;6.65;;;20.70;99.90;;;;;;5071854;28;20170;-48
2023/10/03 05:02:11;;;;;;;17.13;7.38;;;20.60;99.90;;;;;;5071374;28;20652;-48
2023/10/03 05:04:36;;;;;;;12.40;7.25;;;20.70;99.90;;;;;;5071614;28;20170;-49
2023/10/03 05:07:02;;;;;;;13.77;6.05;;;20.70;99.90;;;;;;5071397;28;20568;-48
2023/10/03 05:09:30;;;;;;;15.27;7.55;;;20.60;99.90;;;;;;5071343;28;20165;-48
2023/10/03 05:11:56;;;;;;;14.60;8.23;;;20.70;99.90;;;;;;5071221;28;20174;-48
2023/10/03 05:14:22;;;;;;;14.68;6.82;;;20.60;99.90;;;;;;5071223;28;20177;-48
2023/10/03 05:16:50;;;;;;;15.75;7.95;;;20.60;99.90;;;;;;5071160;28;20522;-48
2023/10/03 05:19:21;;;;;;;15.23;8.40;;;20.60;99.90;;;;;;5071623;28;20176;-48
2023/10/03 05:21:47;;;;;;;17.15;8.55;;;;;;;;;;5071314;28;20245;-48
2023/10/03 05:24:15;;;;;;;15.38;8.10;;;20.50;99.90;;;;;;5071585;28;20541;-48
2023/10/03 05:26:41;;;;;;;16.15;7.70;;;20.50;99.90;;;;;;5071061;28;20166;-49
2023/10/03 05:29:07;;;;;;;15.55;8.25;;;20.50;99.90;;;;;;5071131;28;20232;-48
2023/10/03 05:31:40;;;;;;;19.08;8.23;;;20.50;99.90;;;;;;5071031;28;20162;-48
2023/10/03 05:34:07;;;;;;;12.27;7.50;;;20.40;99.90;;;;;;5071341;28;20217;-48
2023/10/03 05:36:33;;;;;;;13.45;6.82;;;20.50;99.90;;;;;;5071089;28;20166;-48
2023/10/03 05:38:58;;;;;;;16.17;7.85;;;20.40;99.90;;;;;;5070972;28;20174;-47
2023/10/03 05:41:24;;;;;;;12.98;7.43;;;20.40;99.90;;;;;;5071204;28;20622;-48
2023/10/03 05:43:50;;;;;;;16.90;8.73;;;20.40;99.90;;;;;;5070956;28;20665;-48
2023/10/03 05:46:15;;;;;;;16.80;8.30;;;20.40;99.90;;;;;;5071255;28;20222;-48
2023/10/03 05:48:45;;;;;;;18.83;7.60;;;20.40;99.90;;;;;;5070879;28;20162;-48
2023/10/03 05:51:12;;;;;;;14.68;7.40;;;20.40;99.90;;;;;;5070876;28;20197;-48
2023/10/03 05:53:40;;;;;;;17.80;8.52;;;;;;;;;;5070779;28;20205;-48
2023/10/03 05:56:06;;;;;;;17.23;7.80;;;20.30;99.90;;;;;;5071113;28;20252;-49
2023/10/03 05:58:32;;;;;;;14.25;7.13;;;20.30;99.90;;;;;;5073605;28;20220;-48
2023/10/03 06:00:58;;;;;;;17.30;7.60;;;20.30;99.90;;;;;;5074733;28;20296;-49
2023/10/03 06:03:24;;;;;;;18.90;8.75;;;20.30;99.90;;;;;;5074328;28;20203;-49
2023/10/03 06:05:50;;;;;;;16.35;7.72;;;20.30;99.90;;;;;;5074415;28;20163;-48
2023/10/03 06:08:17;;;;;;;13.63;7.82;;;20.30;99.90;;;;;;5075027;28;20174;-48
2023/10/03 06:10:43;;;;;;;16.35;7.82;;;20.30;99.90;;;;;;5075029;28;20173;-48
2023/10/03 06:13:11;;;;;;;14.32;7.32;;;20.30;99.90;;;;;;5074175;28;20262;-48
2023/10/03 06:15:43;;;;;;;17.83;7.95;;;20.30;99.90;;;;;;5056240;28;20637;-49
2023/10/03 06:18:09;;;;;;;15.55;7.35;;;20.30;99.90;;;;;;5074095;28;20690;-48
2023/10/03 06:20:35;;;;;;;14.93;7.13;;;20.30;99.90;;;;;;5074198;28;20244;-48
2023/10/03 06:23:02;;;;;;;15.48;7.32;;;20.30;99.90;;;;;;5074098;28;20253;-49
2023/10/03 06:25:29;;;;;;;12.10;6.80;;;20.30;99.90;;;;;;5074315;28;20170;-48
2023/10/03 06:27:54;;;;;;;13.05;6.90;;;20.30;99.90;;;;;;5074346;28;20174;-49
2023/10/03 06:30:20;;;;;;;15.85;7.40;;;20.30;99.90;;;;;;5073650;28;20538;-48
2023/10/03 06:32:45;;;;;;;12.00;7.18;;;20.20;99.90;;;;;;5074067;28;20687;-48
2023/10/03 06:35:12;;;;;;;10.50;6.78;;;20.20;99.90;;;;;;5073884;28;20216;-48
2023/10/03 06:37:38;;;;;;;13.65;5.93;;;20.20;99.90;;;;;;5074046;28;20261;-49
2023/10/03 06:40:07;;;;;;;14.95;7.22;;;20.10;99.90;;;;;;5074048;28;20202;-49
2023/10/03 06:42:36;;;;;;;19.33;7.18;;;20.10;99.90;;;;;;5055787;28;20245;-48
2023/10/03 06:45:05;;;;;;;13.60;6.10;;;20.10;99.90;;;;;;5073605;28;20162;-51
2023/10/03 06:47:33;;;;;;;13.13;6.15;;;20.10;99.90;;;;;;5073049;28;20227;-50
2023/10/03 06:49:59;;;;;;;13.00;6.60;;;20.00;99.90;;;;;;5073908;28;20249;-53
2023/10/03 06:52:26;;;;;;;11.82;6.38;;;20.00;99.90;;;;;;5073429;28;20288;-49
2023/10/03 06:54:51;;;;;;;12.57;6.85;;;20.00;99.90;;;;;;5073251;28;20170;-47
2023/10/03 06:57:17;;;;;;;15.05;6.10;;;20.00;99.90;;;;;;5073156;28;20227;-50
2023/10/03 06:59:42;;;;;;;13.27;6.25;;;19.90;99.90;;;;;;5074093;28;20215;-52
2023/10/03 07:02:08;;;;;;;16.77;6.78;;;19.90;99.90;;;;;;5073316;28;20544;-49
2023/10/03 07:04:34;;;;;;;12.75;6.88;;;19.80;99.90;;;;;;5073306;28;20534;-49
2023/10/03 07:06:59;;;;;;;11.45;6.82;;;19.80;99.90;;;;;;5073290;28;20223;-49
2023/10/03 07:09:25;;;;;;;11.18;6.18;;;19.80;99.90;;;;;;5072836;28;20252;-49
2023/10/03 07:11:52;;;;;;;14.57;6.35;;;19.70;99.90;;;;;;5073091;28;20170;-49
2023/10/03 07:14:18;;;;;;;13.32;6.53;;;19.70;99.90;;;;;;5073036;28;20622;-48
2023/10/03 07:16:48;;;;;;;10.50;6.38;;;19.60;99.90;;;;;;5073500;28;20166;-50
2023/10/03 07:19:14;;;;;;;9.85;5.30;;;19.60;99.90;;;;;;5073311;28;20185;-49
2023/10/03 07:21:43;;;;;;;9.50;5.63;;;19.60;99.90;;;;;;5073011;28;20172;-49
2023/10/03 07:24:08;;;;;;;10.32;5.95;;;19.60;99.90;;;;;;5072914;28;20170;-49
2023/10/03 07:26:34;;;;;;;7.53;4.82;;;19.60;99.90;;;;;;5072352;28;20176;-49
2023/10/03 07:29:01;;;;;;;11.32;6.03;;;19.60;99.90;;;;;;5072993;28;20166;-49
2023/10/03 07:31:32;;;;;;;12.35;5.35;;;19.60;99.90;;;;;;5072656;28;20174;-53
2023/10/03 07:34:18;;;;;;;12.27;5.90;;;19.60;99.90;;;;;;5073034;28;20625;-52
2023/10/03 07:36:45;;;;;;;9.48;4.38;;;19.60;99.90;;;;;;5058241;28;20177;-52
2023/10/03 07:39:11;;;;;;;9.10;4.15;;;19.70;99.90;;;;;;5072553;28;20651;-52
2023/10/03 07:41:37;;;;;;;9.40;4.45;;;19.80;99.90;;;;;;5072510;28;20221;-51
2023/10/03 07:44:04;;;;;;;7.18;4.72;;;19.70;99.90;;;;;;5072631;28;20526;-50
2023/10/03 07:46:30;;;;;;;9.77;4.38;;;19.80;99.90;;;;;;5072094;28;20221;-51
2023/10/03 07:48:56;;;;;;;6.75;3.80;;;19.80;99.90;;;;;;5072510;28;20533;-51
2023/10/03 07:51:26;;;;;;;9.52;3.63;;;19.80;99.90;;;;;;5054668;28;20219;-52
2023/10/03 07:53:52;;;;;;;6.95;4.40;;;19.90;99.90;;;;;;5072282;28;20284;-53
2023/10/03 07:56:25;;;;;;;9.73;4.10;;;20.00;99.90;;;;;;5072522;28;20169;-51
2023/10/03 07:58:54;;;;;;;5.97;3.80;;;19.90;99.90;;;;;;5072195;28;20654;-50
2023/10/03 08:01:26;;;;;;;8.68;4.30;;;19.90;99.90;;;;;;5072423;28;20177;-50
2023/10/03 08:03:58;;;;;;;5.53;3.58;;;20.00;99.90;;;;;;5072170;28;20166;-52
2023/10/03 08:06:33;;;;;;;9.18;4.55;;;20.10;99.90;;;;;;5072327;28;20185;-50
2023/10/03 08:08:59;;;;;;;7.47;3.85;;;20.20;99.90;;;;;;5071665;28;20162;-52
2023/10/03 08:11:31;;;;;;;7.20;3.75;;;20.30;99.90;;;;;;5071982;28;20165;-52
2023/10/03 08:13:58;;;;;;;6.15;3.90;;;20.30;99.90;;;;;;5072172;28;20253;-52
2023/10/03 08:16:24;;;;;;;7.05;4.18;;;20.30;99.90;;;;;;5072168;28;20182;-50
2023/10/03 08:18:57;;;;;;;6.28;3.42;;;20.30;99.90;;;;;;5071882;28;20166;-51
2023/10/03 08:21:29;;;;;;;7.47;4.00;;;20.30;99.90;;;;;;5071393;28;20170;-49
2023/10/03 08:23:55;;;;;;;11.27;4.22;;;20.30;99.90;;;;;;5071801;28;20626;-49
2023/10/03 08:26:25;;;;;;;6.65;3.55;;;20.30;99.90;;;;;;5071767;28;20648;-51
2023/10/03 08:28:59;;;;;;;7.60;3.92;;;20.40;99.90;;;;;;5071502;28;20176;-49
2023/10/03 08:31:28;;;;;;;4.70;3.50;;;20.30;99.90;;;;;;5071839;28;20215;-52
2023/10/03 08:33:56;;;;;;;7.35;3.60;;;20.20;99.90;;;;;;5071792;28;20213;-49
2023/10/03 08:36:31;;;;;;;6.70;3.90;;;20.20;99.90;;;;;;5071919;28;20166;-50
2023/10/03 08:39:12;;;;;;;9.27;3.92;;;20.10;99.90;;;;;;5071848;28;20184;-49
2023/10/03 08:41:53;;;;;;;4.20;3.42;;;20.10;99.90;;;;;;5071636;28;20180;-49
2023/10/03 08:44:22;;;;;;;8.48;3.83;;;20.00;99.90;;;;;;5071439;28;20173;-49
2023/10/03 08:46:50;;;;;;;5.28;3.65;;;20.10;99.90;;;;;;5071295;28;20220;-49
2023/10/03 08:49:19;;;;;;;4.88;3.40;;;20.10;99.90;;;;;;5071825;28;20170;-49
2023/10/03 08:51:48;;;;;;;4.30;3.53;;;20.20;99.90;;;;;;5053245;28;20180;-49
2023/10/03 08:54:14;;;;;;;5.53;3.70;;;20.30;99.90;;;;;;5071933;28;20189;-49
2023/10/03 08:56:41;;;;;;;5.40;3.83;;;20.20;99.90;;;;;;5071321;28;20630;-49
2023/10/03 08:59:09;;;;;;;5.93;4.22;;;20.20;99.90;;;;;;5053365;28;20173;-49
2023/10/03 09:01:43;;;;;;;5.28;3.67;;;20.20;99.90;;;;;;5071611;28;20177;-49
2023/10/03 09:04:15;;;;;;;5.57;3.35;;;20.20;99.90;;;;;;5071352;28;20162;-48
2023/10/03 09:06:43;;;;;;;8.35;3.72;;;20.20;99.90;;;;;;5071912;28;20234;-49
2023/10/03 09:09:10;;;;;;;5.32;3.20;;;20.30;99.90;;;;;;5071238;28;20170;-49
2023/10/03 09:11:41;;;;;;;5.82;3.70;;;20.40;99.90;;;;;;5070700;28;20173;-50
2023/10/03 09:14:08;;;;;;;5.30;3.28;;;20.50;99.90;;;;;;5071221;28;20205;-49
2023/10/03 09:16:40;;;;;;;6.75;3.40;;;20.60;99.90;;;;;;5071160;28;20535;-49
2023/10/03 09:19:09;;;;;;;8.57;3.35;;;20.60;99.90;;;;;;5071418;28;20253;-49
2023/10/03 09:21:35;;;;;;;5.78;3.10;;;;;;;;;;5070787;28;20598;-49
2023/10/03 09:24:17;;;;;;;7.88;3.30;;;20.60;99.90;;;;;;5070977;28;20669;-49
2023/10/03 09:26:46;;;;;;;5.85;3.40;;;;;;;;;;5071687;28;20205;-48
2023/10/03 09:29:18;;;;;;;6.65;3.08;;;20.80;99.90;;;;;;5071456;28;20170;-48
2023/10/03 09:31:48;;;;;;;7.75;2.75;;;20.80;99.90;;;;;;5073351;28;20166;-49
2023/10/03 09:34:15;;;;;;;6.18;3.22;;;20.80;99.90;;;;;;5075655;28;20190;-48
2023/10/03 09:36:41;;;;;;;6.72;3.25;;;20.70;99.90;;;;;;5075558;28;20525;-48
2023/10/03 09:39:08;;;;;;;8.93;3.53;;;20.60;99.90;;;;;;5075197;28;20185;-48
2023/10/03 09:41:38;;;;;;;11.20;3.67;;;20.40;99.90;;;;;;5075113;28;20235;-49
2023/10/03 09:44:06;;;;;;;7.28;3.53;;;20.30;99.90;;;;;;5074601;28;20302;-48
2023/10/03 09:46:40;;;;;;;5.35;3.58;;;20.40;99.90;;;;;;5074677;28;20218;-48
2023/10/03 09:49:10;;;;;;;5.47;3.53;;;20.30;99.90;;;;;;5056852;28;20170;-47
2023/10/03 09:51:36;;;;;;;9.38;3.67;;;20.40;99.90;;;;;;5056675;28;20181;-48
2023/10/03 09:54:23;;;;;;;6.03;3.33;;;20.40;99.90;;;;;;5074814;28;20226;-46
2023/10/03 09:56:50;;;;;;;8.32;3.60;;;20.50;99.90;;;;;;5074801;28;20170;-49
2023/10/03 09:59:18;;;;;;;6.80;3.15;;;20.50;99.90;;;;;;5053317;28;20192;-49
2023/10/03 10:01:45;;;;;;;6.90;3.03;;;20.50;99.90;;;;;;5057075;28;20232;-47
2023/10/03 10:04:14;;;;;;;5.60;3.08;;;20.50;99.90;;;;;;5058238;28;20614;-48
2023/10/03 10:07:14;;;;;;;5.03;2.92;;;20.40;99.90;;;;;;5054645;28;20178;-47
2023/10/03 10:09:46;;;;;;;5.88;3.03;;;20.40;99.90;;;;;;5054462;28;20636;-48
2023/10/03 10:12:19;;;;;;;6.18;3.58;;;20.40;99.90;;;;;;5038070;28;20209;-48
2023/10/03 10:15:13;;;;;;;6.03;3.50;;;20.40;99.90;;;;;;5055015;28;20174;-48
2023/10/03 10:17:54;;;;;;;8.48;3.63;;;20.40;99.90;;;;;;5054144;28;20158;-49
2023/10/03 10:20:27;;;;;;;5.85;3.50;;;20.30;99.90;;;;;;5036187;28;20166;-48
2023/10/03 10:23:01;;;;;;;7.32;3.80;;;20.30;99.90;;;;;;5054177;28;20178;-49
2023/10/03 10:25:41;;;;;;;9.82;4.28;;;20.10;99.90;;;;;;5053969;28;20194;-48
2023/10/03 10:28:17;;;;;;;6.38;3.42;;;20.10;99.90;;;;;;5054332;28;20170;-49
2023/10/03 10:31:15;;;;;;;7.40;3.75;;;20.00;99.90;;;;;;5054463;28;20618;-50
2023/10/03 10:33:41;;;;;;;8.35;3.60;;;20.00;99.90;;;;;;5054252;28;20202;-50
2023/10/03 10:36:10;;;;;;;5.45;3.65;;;20.00;99.90;;;;;;5053644;28;20495;-50
2023/10/03 10:38:35;;;;;;;5.53;3.60;;;19.90;99.90;;;;;;5035593;28;20580;-50
2023/10/03 10:44:21;;;;;;;6.28;3.50;;;19.80;99.90;;;;;;5052855;28;20185;-50
2023/10/03 10:46:49;;;;;;;4.75;3.72;;;19.80;99.90;;;;;;5053695;28;20218;-51
2023/10/03 10:49:37;;;;;;;5.07;3.15;;;19.30;99.90;;;;;;5054349;28;20174;-48
2023/10/03 10:52:10;;;;;;;4.22;3.05;;;18.90;99.90;;;;;;5053353;28;20258;-48
2023/10/03 10:54:39;;;;;;;5.70;3.40;;;18.60;99.90;;;;;;5053051;28;20181;-48
2023/10/03 10:57:06;;;;;;;4.32;2.78;;;18.50;99.90;;;;;;5052841;28;20261;-48
2023/10/03 10:59:35;;;;;;;4.20;3.33;;;18.40;99.90;;;;;;5053625;28;20171;-49
2023/10/03 11:02:03;;;;;;;6.18;3.33;;;18.20;99.90;;;;;;5053384;28;20369;-48
2023/10/03 11:04:34;;;;;;;7.70;3.90;;;18.20;99.90;;;;;;5051982;28;20215;-51
2023/10/03 11:07:00;;;;;;;5.03;3.63;;;18.20;99.90;;;;;;5036227;28;20197;-52
2023/10/03 11:09:36;;;;;;;8.88;3.30;;;18.20;99.90;;;;;;5053122;28;20174;-52
2023/10/03 11:12:07;;;;;;;9.05;3.58;;;18.20;99.90;;;;;;5035470;28;20565;-51
2023/10/03 11:14:33;;;;;;;6.28;3.80;;;18.20;99.90;;;;;;5052952;28;20166;-50
2023/10/03 11:17:05;;;;;;;6.13;3.00;;;18.30;99.90;;;;;;5052803;28;20159;-51
2023/10/03 11:19:31;;;;;;;6.40;3.50;;;18.40;99.90;;;;;;5049767;28;20193;-53
2023/10/03 11:21:59;;;;;;;5.68;3.50;;;18.40;99.90;;;;;;5051359;28;20171;-53
2023/10/03 11:24:28;;;;;;;6.32;4.10;;;18.50;99.90;;;;;;5052330;28;20198;-53
2023/10/03 11:26:57;;;;;;;6.20;4.20;;;18.60;99.90;;;;;;5052516;28;20181;-52
2023/10/03 11:29:46;;;;;;;7.05;3.95;;;18.60;99.90;;;;;;5034533;28;20178;-52
2023/10/03 11:32:25;;;;;;;7.90;3.67;;;18.80;99.90;;;;;;5053143;28;20194;-49
2023/10/03 11:34:53;;;;;;;4.95;3.72;;;18.60;99.90;;;;;;5034722;28;20178;-52
2023/10/03 11:37:32;;;;;;;5.80;3.38;;;18.70;99.90;;;;;;5052769;28;20170;-50
2023/10/03 11:40:15;;;;;;;5.68;3.50;;;18.70;99.90;;;;;;5052176;28;20559;-53
2023/10/03 11:43:02;;;;;;;6.88;3.30;;;18.60;99.90;;;;;;5036477;28;20518;-48
2023/10/03 11:45:32;;;;;;;5.20;3.40;;;18.50;99.90;;;;;;5052371;28;20206;-49
2023/10/03 11:48:17;;;;;;;5.97;2.95;;;18.30;99.90;;;;;;5051843;28;20190;-49
2023/10/03 11:50:44;;;;;;;4.90;3.33;;;18.30;99.90;;;;;;5053242;28;20189;-52
2023/10/03 11:53:11;;;;;;;5.10;2.58;;;18.20;99.90;;;;;;5053064;28;20272;-51
2023/10/03 11:55:40;;;;;;;4.10;2.22;;;18.20;99.90;;;;;;5034644;28;20170;-48
2023/10/03 11:58:07;;;;;;;2.45;1.85;;;18.10;99.90;;;;;;5052583;28;20174;-48
2023/10/03 12:00:33;;;;;;;2.65;1.70;;;18.00;99.90;;;;;;5052587;28;20173;-48
2023/10/03 12:02:59;;;;;;;6.03;2.75;;;18.00;99.90;;;;;;5052215;28;20202;-48
2023/10/03 12:05:27;;;;;;;5.22;1.63;;;17.90;99.90;;;;;;5052503;28;20221;-49
2023/10/03 12:07:54;;;;;;;2.33;1.65;;;17.90;99.90;;;;;;5052191;28;20231;-48
2023/10/03 12:10:20;;;;;;;3.95;2.17;;;17.80;99.90;;;;;;5051890;28;20155;-49
2023/10/03 12:12:46;;;;;;;2.10;1.08;;;17.80;99.90;;;;;;5051829;28;20202;-49
2023/10/03 12:15:13;;;;;;;3.42;1.40;;;17.70;99.90;;;;;;5052391;28;20590;-49
2023/10/03 12:17:40;;;;;;;3.33;1.42;;;17.70;99.90;;;;;;5034624;28;20170;-49
2023/10/03 12:20:11;;;;;;;2.90;1.77;;;17.70;99.90;;;;;;5034191;28;20170;-48
2023/10/03 12:22:41;;;;;;;5.45;1.58;;;17.70;99.90;;;;;;5033901;28;20197;-49
2023/10/03 12:25:09;;;;;;;5.32;1.90;;;17.70;99.90;;;;;;5051775;28;20186;-49
2023/10/03 12:27:35;;;;;;;2.53;1.48;;;17.50;99.90;;;;;;5051994;28;20174;-49
2023/10/03 12:30:04;;;;;;;3.10;1.15;;;17.50;99.90;;;;;;5051749;28;20175;-48
2023/10/03 12:32:34;;;;;;;3.55;1.10;;;17.40;99.90;;;;;;5051917;28;20283;-49
2023/10/03 12:35:00;;;;;;;2.60;1.10;;;17.40;99.90;;;;;;5051633;28;20252;-49
2023/10/03 12:37:26;;;;;;;3.53;1.20;;;17.50;99.90;;;;;;5051623;28;20691;-48
2023/10/03 12:39:52;;;;;;;1.98;1.00;;;17.50;99.90;;;;;;5051602;28;20229;-50
2023/10/03 12:42:17;;;;;;;1.00;0.82;;;17.50;99.90;;;;;;5051672;28;20171;-49
2023/10/03 12:44:43;;;;;;;1.33;0.90;;;17.40;99.90;;;;;;5052119;28;20162;-49
2023/10/03 12:47:08;;;;;;;2.72;1.05;;;17.50;99.90;;;;;;5051269;28;20238;-49
2023/10/03 12:49:34;;;;;;;1.00;0.95;;;17.60;99.90;;;;;;5051548;28;20686;-50
2023/10/03 12:52:00;;;;;;;2.08;1.20;;;;;;;;;;5051558;28;20182;-49
2023/10/03 12:54:27;;;;;;;1.98;0.98;;;17.60;99.90;;;;;;5051662;28;20253;-51
2023/10/03 12:56:52;;;;;;;2.13;1.10;;;17.70;99.90;;;;;;5051676;28;20193;-48